Date,TemperatureHighF,TemperatureAvgF,TemperatureLowF,DewpointHighF,DewpointAvgF,DewpointLowF,HumidityHigh,HumidityAvg,HumidityLow,PressureMaxIn,PressureMinIn,WindSpeedMaxMPH,WindSpeedAvgMPH,GustSpeedMaxMPH,PrecipitationSumIn
2013-7-1,74.0,69.1,66.0,-99.9,-99.9,-99.9,0,0,100,30.15,29.99,15,9,23,0.00
2013-7-2,75.0,70.2,67.0,-99.9,-99.9,-99.9,0,0,100,30.25,30.14,14,9,22,0.00
2013-7-3,74.0,71.1,68.0,-99.9,-99.9,-99.9,0,0,100,30.27,30.21,14,9,23,0.00
2013-7-4,75.0,71.2,69.0,-99.9,-99.9,-99.9,0,0,100,30.26,30.17,14,10,24,0.00
2013-7-5,77.0,72.6,69.0,-99.9,-99.9,-99.9,0,0,100,30.20,30.11,13,9,22,0.00
2013-7-6,80.0,74.4,70.0,-99.9,-99.9,-99.9,0,0,100,30.12,30.00,13,9,21,0.00
2013-7-7,82.0,76.0,70.0,-99.9,-99.9,-99.9,0,0,100,30.03,29.96,11,7,19,0.00
2013-7-8,77.0,73.1,71.0,-99.9,-99.9,-99.9,0,0,100,30.05,29.96,14,8,24,0.00
2013-7-9,78.0,73.7,71.0,-99.9,-99.9,-99.9,0,0,100,30.10,30.04,10,5,15,0.00
2013-7-10,78.0,71.6,71.0,-99.9,-99.9,-99.9,0,0,100,30.08,29.87,13,7,23,0.00
2013-7-11,76.0,72.8,71.0,-99.9,-99.9,-99.9,0,0,100,29.91,29.84,13,8,23,0.00
2013-7-12,72.0,69.1,66.0,-99.9,-99.9,-99.9,0,0,100,30.16,29.91,16,-20,21,0.00
2013-7-13,78.0,70.3,64.0,-99.9,-99.9,-99.9,0,0,100,30.31,30.17,11,5,13,0.00
2013-7-14,80.0,74.9,70.0,-99.9,-99.9,-99.9,0,0,100,30.32,30.21,11,-12,16,0.00
2013-7-15,85.0,77.3,72.0,-99.9,-99.9,-99.9,0,0,100,30.21,30.12,7,4,12,0.00
2013-7-16,83.0,77.2,73.0,-99.9,-99.9,-99.9,0,0,100,30.16,30.08,9,5,13,0.00
2013-7-17,82.0,74.9,71.0,-99.9,-99.9,-99.9,0,0,100,30.19,30.07,10,5,12,0.00
2013-7-18,85.0,77.1,72.0,-99.9,-99.9,-99.9,0,0,100,30.07,29.99,9,6,17,0.00
2013-7-19,82.0,76.9,72.0,-99.9,-99.9,-99.9,0,0,100,29.99,29.82,16,10,28,0.00
2013-7-20,81.0,75.9,74.0,-99.9,-99.9,-99.9,0,0,100,29.83,29.72,19,11,29,0.00
2013-7-21,78.0,72.6,67.0,-99.9,-99.9,-99.9,0,0,100,30.00,29.81,10,-14,15,0.00
2013-7-22,76.0,69.1,66.0,-99.9,-99.9,-99.9,0,0,100,30.00,29.90,10,5,13,0.00
2013-7-23,79.0,74.4,69.0,-99.9,-99.9,-99.9,0,0,100,29.90,29.60,14,7,22,0.00
2013-7-24,82.0,77.2,73.0,-99.9,-99.9,-99.9,0,0,100,29.86,29.60,12,7,17,0.00
2013-7-25,74.0,67.4,65.0,-99.9,-99.9,-99.9,0,0,100,30.02,29.88,21,14,27,0.00
2013-7-26,71.0,67.5,65.0,-99.9,-99.9,-99.9,0,0,100,30.03,29.83,21,14,30,0.00
2013-7-27,75.0,70.9,66.0,-99.9,-99.9,-99.9,0,0,100,30.10,30.01,12,6,16,0.00
2013-7-28,77.0,71.4,69.0,-99.9,-99.9,-99.9,0,0,100,30.05,29.94,13,-40,20,0.00
2013-7-29,77.0,70.8,67.0,-99.9,-99.9,-99.9,0,0,100,30.06,30.00,10,5,15,0.00
2013-7-30,77.0,71.6,68.0,-99.9,-99.9,-99.9,0,0,100,30.09,30.02,9,6,15,0.00
2013-7-31,77.0,70.8,67.0,-99.9,-99.9,-99.9,0,0,100,30.13,30.08,9,5,16,0.00